createdAt,value
2018-06-14T00:00:06.409Z,11.31
2018-06-14T00:01:06.494Z,11.28
2018-06-14T00:02:06.366Z,11.28
2018-06-14T00:03:06.404Z,11.23
2018-06-14T00:04:06.303Z,11.16
2018-06-14T00:05:06.310Z,11.24
2018-06-14T00:06:06.246Z,11.17
2018-06-14T00:07:06.350Z,11.12
2018-06-14T00:08:06.192Z,11.12
2018-06-14T00:09:06.243Z,11.16
2018-06-14T00:10:06.147Z,11.06
2018-06-14T00:11:07.167Z,11.11
2018-06-14T00:12:06.105Z,11.08
2018-06-14T00:13:06.174Z,10.95
2018-06-14T00:14:06.049Z,10.94
2018-06-14T00:15:06.092Z,10.94
2018-06-14T00:16:05.997Z,10.98
2018-06-14T00:17:06.106Z,10.94
2018-06-14T00:18:05.944Z,10.91
2018-06-14T00:19:06.002Z,10.95
2018-06-14T00:20:05.877Z,10.87
2018-06-14T00:21:07.025Z,10.91
2018-06-14T00:22:05.852Z,10.86
2018-06-14T00:23:53.007Z,10.80
2018-06-14T00:24:53.030Z,10.69
2018-06-14T00:26:46.520Z,10.69
2018-06-14T00:27:46.314Z,10.66
2018-06-14T00:28:47.320Z,10.66
2018-06-14T00:29:46.261Z,10.66
2018-06-14T00:30:46.264Z,10.62
2018-06-14T00:31:46.211Z,10.69
2018-06-14T00:32:47.239Z,10.65
2018-06-14T00:33:46.149Z,10.69
2018-06-14T00:34:46.126Z,10.69
2018-06-14T00:35:48.179Z,10.68
2018-06-14T00:36:46.078Z,10.65
2018-06-14T00:37:46.146Z,10.70
2018-06-14T00:38:46.019Z,10.62
2018-06-14T00:39:46.057Z,10.60
2018-06-14T00:40:45.979Z,10.68
2018-06-14T00:41:46.087Z,10.66
2018-06-14T00:42:45.914Z,10.55
2018-06-14T00:43:47.005Z,10.58
2018-06-14T00:44:45.867Z,10.60
2018-06-14T00:45:45.893Z,10.55
2018-06-14T00:46:45.813Z,10.52
2018-06-14T00:47:47.852Z,10.49
2018-06-14T00:48:45.762Z,10.58
2018-06-14T00:49:45.820Z,10.57
2018-06-14T00:50:45.717Z,10.58
2018-06-14T00:51:45.731Z,10.58
2018-06-14T00:52:45.673Z,10.63
2018-06-14T00:53:46.674Z,10.66
2018-06-14T00:54:45.617Z,10.70
2018-06-14T00:55:45.659Z,10.62
2018-06-14T00:56:45.561Z,10.65
2018-06-14T00:57:45.568Z,10.72
2018-06-14T00:58:45.504Z,10.65
2018-06-14T00:59:45.604Z,10.66
2018-06-14T01:00:45.445Z,10.63
2018-06-14T01:01:45.493Z,10.66
2018-06-14T01:02:45.403Z,10.68
2018-06-14T01:03:45.501Z,10.63
2018-06-14T01:04:45.337Z,10.70
2018-06-14T01:05:45.416Z,10.72
2018-06-14T01:06:45.296Z,10.66
2018-06-14T01:07:45.340Z,10.70
2018-06-14T01:08:45.259Z,10.63
2018-06-14T01:09:46.265Z,10.66
2018-06-14T01:10:45.193Z,10.51
2018-06-14T01:11:45.266Z,10.47
2018-06-14T01:12:45.150Z,10.58
2018-06-14T01:13:45.177Z,10.47
2018-06-14T01:14:45.088Z,10.47
2018-06-14T01:15:45.175Z,10.39
2018-06-14T01:16:45.040Z,10.49
2018-06-14T01:17:45.099Z,10.49
2018-06-14T01:18:44.987Z,10.38
2018-06-14T01:19:45.003Z,10.42
2018-06-14T01:20:44.923Z,10.46
2018-06-14T01:21:45.016Z,10.44
2018-06-14T01:22:44.869Z,10.43
2018-06-14T01:23:44.925Z,10.46
2018-06-14T01:24:44.822Z,10.35
2018-06-14T01:25:44.842Z,10.38
2018-06-14T01:26:44.769Z,10.47
2018-06-14T01:27:44.859Z,10.35
2018-06-14T01:28:44.723Z,10.26
2018-06-14T01:29:44.774Z,10.36
2018-06-14T01:30:44.696Z,10.38
2018-06-14T01:31:44.786Z,10.35
2018-06-14T01:32:44.620Z,10.36
2018-06-14T01:33:44.695Z,10.35
2018-06-14T01:34:44.565Z,10.44
2018-06-14T01:35:44.615Z,10.38
2018-06-14T01:36:44.508Z,10.29
2018-06-14T01:37:44.710Z,10.38
2018-06-14T01:38:44.453Z,10.31
2018-06-14T01:39:57.614Z,10.35
2018-06-14T01:41:35.799Z,10.29
2018-06-14T01:42:35.813Z,10.34
2018-06-14T01:43:35.711Z,10.31
2018-06-14T01:44:35.720Z,10.26
2018-06-14T01:45:35.663Z,10.31
2018-06-14T01:46:35.747Z,10.31
2018-06-14T01:47:35.609Z,10.24
2018-06-14T01:48:35.649Z,10.25
2018-06-14T01:49:35.571Z,10.25
2018-06-14T01:50:35.560Z,10.25
2018-06-14T01:51:35.506Z,10.25
2018-06-14T01:52:35.583Z,10.25
2018-06-14T01:53:35.475Z,10.24
2018-06-14T01:54:35.495Z,10.31
2018-06-14T01:55:35.401Z,10.28
2018-06-14T01:56:35.496Z,10.25
2018-06-14T01:57:35.357Z,10.28
2018-06-14T01:58:35.418Z,10.34
2018-06-14T01:59:35.296Z,10.24
2018-06-14T02:00:35.330Z,10.25
2018-06-14T02:01:35.234Z,10.24
2018-06-14T02:02:35.339Z,10.25
2018-06-14T02:03:35.186Z,10.20
2018-06-14T02:04:35.155Z,10.24
2018-06-14T02:05:35.131Z,10.26
2018-06-14T02:06:35.109Z,10.28
2018-06-14T02:07:35.079Z,10.13
2018-06-14T02:08:35.160Z,10.16
2018-06-14T02:09:35.031Z,10.13
2018-06-14T02:10:35.088Z,10.18
2018-06-14T02:11:34.987Z,10.14
2018-06-14T02:12:35.001Z,10.16
2018-06-14T02:13:34.921Z,10.20
2018-06-14T02:14:35.017Z,10.07
2018-06-14T02:15:34.874Z,10.20
2018-06-14T02:16:34.843Z,10.06
2018-06-14T02:17:34.825Z,10.16
2018-06-14T02:18:34.793Z,10.04
2018-06-14T02:19:34.848Z,9.98
2018-06-14T02:20:34.742Z,9.95
2018-06-14T02:21:35.809Z,9.96
2018-06-14T02:22:34.684Z,9.86
2018-06-14T02:23:34.763Z,9.98
2018-06-14T02:24:34.632Z,9.92
2018-06-14T02:25:34.675Z,9.86
2018-06-14T02:26:34.577Z,9.78
2018-06-14T02:27:34.552Z,9.83
2018-06-14T02:28:34.526Z,9.81
2018-06-14T02:29:34.507Z,9.88
2018-06-14T02:30:34.469Z,9.78
2018-06-14T02:31:35.533Z,9.86
2018-06-14T02:32:34.416Z,9.86
2018-06-14T02:33:34.390Z,9.85
2018-06-14T02:34:36.453Z,9.80
2018-06-14T02:35:34.352Z,9.81
2018-06-14T02:36:34.324Z,9.80
2018-06-14T02:37:34.292Z,9.83
2018-06-14T02:39:19.985Z,9.68
2018-06-14T02:40:20.003Z,9.74
2018-06-14T02:41:19.899Z,9.74
2018-06-14T02:42:19.922Z,9.65
2018-06-14T02:43:19.857Z,9.67
2018-06-14T02:44:19.839Z,9.68
2018-06-14T02:45:19.791Z,9.80
2018-06-14T02:46:19.848Z,9.68
2018-06-14T02:47:19.738Z,9.73
2018-06-14T02:48:19.721Z,9.77
2018-06-14T02:49:19.769Z,9.73
2018-06-14T02:50:19.673Z,9.80
2018-06-14T02:51:19.645Z,9.80
2018-06-14T02:52:20.711Z,9.74
2018-06-14T02:53:19.591Z,9.75
2018-06-14T02:54:19.597Z,9.78
2018-06-14T02:55:19.534Z,9.75
2018-06-14T02:56:19.595Z,9.83
2018-06-14T02:57:19.484Z,9.80
2018-06-14T02:58:19.515Z,9.81
2018-06-14T02:59:19.474Z,9.70
2018-06-14T03:00:19.420Z,9.68
2018-06-14T03:01:19.392Z,9.74
2018-06-14T03:02:19.528Z,9.73
2018-06-14T03:03:19.320Z,9.80
2018-06-14T03:04:19.350Z,9.83
2018-06-14T03:05:19.274Z,9.74
2018-06-14T03:06:19.244Z,9.75
2018-06-14T03:07:19.262Z,9.81
2018-06-14T03:08:19.192Z,9.91
2018-06-14T03:09:19.180Z,9.80
2018-06-14T03:10:19.134Z,9.81
2018-06-14T03:11:19.190Z,9.91
2018-06-14T03:12:19.079Z,9.85
2018-06-14T03:13:19.058Z,9.80
2018-06-14T03:14:21.158Z,9.75
2018-06-14T03:15:18.997Z,9.75
2018-06-14T03:16:18.989Z,9.81
2018-06-14T03:17:18.949Z,9.78
2018-06-14T03:18:18.939Z,9.80
2018-06-14T03:19:18.918Z,9.75
2018-06-14T03:20:18.868Z,9.88
2018-06-14T03:21:23.441Z,9.83
2018-06-14T03:22:18.807Z,9.91
2018-06-14T03:23:18.845Z,9.85
2018-06-14T03:24:18.760Z,9.80
2018-06-14T03:25:18.754Z,9.81
2018-06-14T03:26:18.716Z,9.78
2018-06-14T03:27:18.771Z,9.86
2018-06-14T03:28:18.658Z,9.78
2018-06-14T03:29:18.693Z,9.86
2018-06-14T03:30:18.621Z,9.80
2018-06-14T03:31:19.625Z,9.75
2018-06-14T03:32:18.556Z,9.89
2018-06-14T03:33:18.524Z,9.77
2018-06-14T03:34:19.534Z,9.85
2018-06-14T03:35:18.469Z,9.85
2018-06-14T03:36:18.517Z,9.88
2018-06-14T03:37:18.420Z,9.81
2018-06-14T03:38:18.438Z,9.80
2018-06-14T03:39:18.375Z,9.91
2018-06-14T03:40:18.448Z,9.86
2018-06-14T03:41:18.323Z,9.89
2018-06-14T03:42:18.291Z,9.98
2018-06-14T03:43:18.256Z,10.09
2018-06-14T03:44:18.227Z,10.10
2018-06-14T03:45:18.249Z,10.13
2018-06-14T03:46:18.178Z,10.18
2018-06-14T03:47:18.155Z,10.25
2018-06-14T03:48:18.193Z,10.26
2018-06-14T03:49:18.102Z,10.26
2018-06-14T03:50:18.110Z,10.28
2018-06-14T03:51:18.064Z,10.28
2018-06-14T03:52:18.018Z,10.35
2018-06-14T03:53:17.997Z,10.35
2018-06-14T03:54:18.030Z,10.34
2018-06-14T03:55:17.940Z,10.39
2018-06-14T03:56:18.964Z,10.38
2018-06-14T03:57:17.905Z,10.47
2018-06-14T03:58:17.887Z,10.46
2018-06-14T03:59:17.832Z,10.49
2018-06-14T04:00:17.831Z,10.43
2018-06-14T04:01:18.904Z,10.47
2018-06-14T04:02:17.761Z,10.49
2018-06-14T04:03:17.787Z,10.46
2018-06-14T04:04:17.698Z,10.58
2018-06-14T04:05:17.685Z,10.57
2018-06-14T04:06:17.667Z,10.51
2018-06-14T04:07:17.660Z,10.65
2018-06-14T04:08:17.624Z,10.66
2018-06-14T04:09:17.576Z,10.63
2018-06-14T04:10:17.692Z,10.70
2018-06-14T04:11:17.525Z,10.66
2018-06-14T04:12:17.561Z,10.72
2018-06-14T04:14:06.216Z,10.76
2018-06-14T04:15:06.134Z,10.78
2018-06-14T04:16:06.093Z,10.81
2018-06-14T04:17:06.073Z,10.87
2018-06-14T04:18:06.119Z,10.83
2018-06-14T04:19:06.040Z,10.93
2018-06-14T04:20:05.991Z,10.98
2018-06-14T04:21:05.975Z,10.95
2018-06-14T04:22:05.946Z,10.95
2018-06-14T04:23:05.918Z,11.03
2018-06-14T04:24:05.909Z,11.12
2018-06-14T04:25:05.872Z,11.17
2018-06-14T04:26:05.851Z,11.24
2018-06-14T04:27:05.870Z,11.24
2018-06-14T04:28:05.797Z,11.16
2018-06-14T04:29:05.760Z,11.30
2018-06-14T04:30:05.741Z,11.28
2018-06-14T04:31:06.827Z,11.33
2018-06-14T04:32:05.686Z,11.36
2018-06-14T04:34:01.398Z,11.41
2018-06-14T04:35:01.420Z,11.51
2018-06-14T04:36:01.340Z,11.48
2018-06-14T04:37:01.305Z,11.51
2018-06-14T04:38:02.357Z,11.51
2018-06-14T04:39:01.253Z,11.59
2018-06-14T04:40:01.240Z,11.49
2018-06-14T04:41:01.188Z,11.49
2018-06-14T04:42:01.276Z,11.66
2018-06-14T04:43:01.149Z,11.64
2018-06-14T04:44:01.109Z,11.77
2018-06-14T04:45:01.090Z,11.69
2018-06-14T04:46:01.060Z,11.78
2018-06-14T04:47:01.041Z,11.82
2018-06-14T04:48:01.100Z,11.85
2018-06-14T04:49:00.974Z,11.85
2018-06-14T04:50:00.957Z,11.90
2018-06-14T04:51:01.032Z,11.88
2018-06-14T04:52:00.899Z,11.96
2018-06-14T04:53:00.881Z,12.01
2018-06-14T04:54:00.851Z,12.03
2018-06-14T04:55:00.850Z,12.04
2018-06-14T04:56:00.812Z,12.18
2018-06-14T04:57:00.774Z,12.15
2018-06-14T04:58:00.859Z,12.25
2018-06-14T04:59:00.724Z,12.37
2018-06-14T05:00:46.690Z,12.29
2018-06-14T05:01:46.661Z,12.44
2018-06-14T05:02:46.575Z,12.46
2018-06-14T05:03:46.525Z,12.49
2018-06-14T05:04:47.552Z,12.58
2018-06-14T05:05:46.508Z,12.56
2018-06-14T05:06:47.596Z,12.63
2018-06-14T05:07:46.417Z,12.67
2018-06-14T05:08:46.422Z,12.61
2018-06-14T05:09:46.376Z,12.62
2018-06-14T05:10:46.365Z,12.69
2018-06-14T05:11:46.318Z,12.74
2018-06-14T05:12:46.381Z,12.69
2018-06-14T05:13:46.318Z,12.79
2018-06-14T05:14:46.244Z,12.81
2018-06-14T05:15:46.205Z,12.92
2018-06-14T05:16:46.188Z,12.96
2018-06-14T05:17:46.160Z,12.98
2018-06-14T05:18:46.133Z,12.92
2018-06-14T05:19:46.099Z,13.03
2018-06-14T05:20:46.076Z,13.10
2018-06-14T05:21:46.055Z,13.09
2018-06-14T05:22:46.023Z,13.10
2018-06-14T05:23:46.034Z,13.19
2018-06-14T05:24:45.979Z,13.17
2018-06-14T05:25:45.946Z,13.25
2018-06-14T05:26:45.959Z,13.19
2018-06-14T05:27:45.896Z,13.35
2018-06-14T05:28:45.867Z,13.38
2018-06-14T05:29:45.881Z,13.51
2018-06-14T05:30:45.858Z,13.57
2018-06-14T05:31:45.986Z,13.59
2018-06-14T05:32:45.970Z,13.68
2018-06-14T05:33:45.747Z,13.63
2018-06-14T05:34:45.783Z,13.73
2018-06-14T05:35:45.695Z,13.79
2018-06-14T05:36:45.790Z,13.68
2018-06-14T05:37:45.629Z,13.62
2018-06-14T05:38:45.608Z,13.63
2018-06-14T05:39:45.577Z,13.62
2018-06-14T05:40:45.558Z,13.62
2018-06-14T05:41:45.528Z,13.65
2018-06-14T05:42:45.565Z,13.62
2018-06-14T05:43:45.466Z,13.63
2018-06-14T05:44:45.479Z,13.68
2018-06-14T05:45:45.415Z,13.65
2018-06-14T05:46:45.528Z,13.65
2018-06-14T05:47:45.371Z,13.69
2018-06-14T05:48:45.342Z,13.68
2018-06-14T05:49:45.301Z,13.66
2018-06-14T05:50:45.375Z,13.75
2018-06-14T05:51:45.266Z,13.75
2018-06-14T05:52:45.346Z,13.76
2018-06-14T05:53:45.190Z,13.80
2018-06-14T05:54:45.241Z,13.90
2018-06-14T05:55:45.156Z,13.87
2018-06-14T05:57:32.659Z,14.01
2018-06-14T05:58:32.667Z,13.96
2018-06-14T05:59:32.579Z,14.09
2018-06-14T06:00:32.578Z,14.21
2018-06-14T06:01:32.519Z,14.24
2018-06-14T06:02:32.593Z,14.34
2018-06-14T06:03:32.452Z,14.29
2018-06-14T06:04:32.506Z,14.36
2018-06-14T06:05:32.416Z,14.45
2018-06-14T06:06:32.452Z,14.46
2018-06-14T06:07:32.351Z,14.57
2018-06-14T06:08:32.430Z,14.57
2018-06-14T06:09:32.296Z,14.57
2018-06-14T06:10:32.275Z,14.61
2018-06-14T06:11:32.257Z,14.61
2018-06-14T06:12:33.230Z,14.69
2018-06-14T06:13:32.203Z,14.79
2018-06-14T06:14:36.910Z,14.90
2018-06-14T06:15:32.138Z,14.82
2018-06-14T06:16:32.174Z,14.90
2018-06-14T06:17:32.088Z,14.95
2018-06-14T06:18:32.083Z,14.91
2018-06-14T06:19:32.028Z,14.93
2018-06-14T06:20:32.098Z,15.07
2018-06-14T06:21:31.985Z,15.13
2018-06-14T06:22:32.006Z,15.19
2018-06-14T06:23:31.966Z,15.19
2018-06-14T06:24:31.928Z,15.16
2018-06-14T06:25:31.881Z,15.25
2018-06-14T06:26:32.960Z,15.25
2018-06-14T06:27:31.830Z,15.16
2018-06-14T06:28:31.844Z,15.18
2018-06-14T06:29:31.770Z,15.23
2018-06-14T06:30:31.755Z,15.33
2018-06-14T06:31:31.724Z,15.35
2018-06-14T06:32:32.715Z,15.38
2018-06-14T06:33:31.708Z,15.44
2018-06-14T06:34:31.696Z,15.53
2018-06-14T06:35:31.600Z,15.56
2018-06-14T06:36:31.714Z,15.55
2018-06-14T06:37:31.552Z,15.58
2018-06-14T06:38:31.611Z,15.73
2018-06-14T06:39:31.497Z,15.80
2018-06-14T06:40:31.519Z,15.71
2018-06-14T06:41:31.441Z,15.80
2018-06-14T06:42:31.540Z,15.91
2018-06-14T06:43:31.394Z,15.98
2018-06-14T06:44:31.459Z,15.92
2018-06-14T06:45:31.336Z,15.92
2018-06-14T06:46:31.352Z,15.96
2018-06-14T06:47:31.308Z,15.95
2018-06-14T06:48:32.350Z,16.14
2018-06-14T06:49:31.225Z,16.10
2018-06-14T06:50:31.201Z,16.13
2018-06-14T06:51:31.298Z,16.11
2018-06-14T06:52:31.150Z,16.18
2018-06-14T06:53:31.211Z,16.16
2018-06-14T06:54:31.106Z,16.27
2018-06-14T06:55:31.112Z,16.29
2018-06-14T06:56:31.041Z,16.34
2018-06-14T06:57:31.128Z,16.48
2018-06-14T06:58:30.984Z,16.52
2018-06-14T06:59:31.034Z,16.62
2018-06-14T07:00:30.946Z,16.63
2018-06-14T07:01:31.055Z,16.62
2018-06-14T07:02:30.887Z,16.77
2018-06-14T07:03:30.871Z,16.80
2018-06-14T07:04:30.835Z,16.95
2018-06-14T07:05:30.851Z,16.96
2018-06-14T07:06:30.857Z,17.02
2018-06-14T07:07:31.800Z,17.09
2018-06-14T07:08:30.734Z,17.09
2018-06-14T07:09:30.777Z,17.07
2018-06-14T07:10:30.678Z,16.98
2018-06-14T07:11:30.730Z,17.02
2018-06-14T07:12:30.624Z,17.03
2018-06-14T07:13:30.711Z,16.92
2018-06-14T07:14:30.573Z,16.91
2018-06-14T07:15:30.626Z,16.91
2018-06-14T07:16:30.512Z,16.95
2018-06-14T07:17:30.485Z,17.03
2018-06-14T07:18:30.453Z,17.05
2018-06-14T07:19:30.440Z,17.02
2018-06-14T07:20:30.411Z,17.17
2018-06-14T07:21:30.537Z,17.21
2018-06-14T07:22:30.352Z,17.18
2018-06-14T07:23:30.326Z,17.27
2018-06-14T07:24:30.371Z,17.36
2018-06-14T07:25:30.287Z,17.39
2018-06-14T07:26:30.304Z,17.35
2018-06-14T07:27:30.235Z,17.40
2018-06-14T07:28:30.210Z,17.46
2018-06-14T07:29:30.211Z,17.46
2018-06-14T07:31:15.929Z,17.51
2018-06-14T07:32:15.813Z,17.51
2018-06-14T07:33:15.809Z,17.54
2018-06-14T07:34:15.799Z,17.51
2018-06-14T07:35:15.750Z,17.47
2018-06-14T07:36:16.760Z,17.51
2018-06-14T07:37:15.686Z,17.60
2018-06-14T07:38:15.732Z,17.55
2018-06-14T07:39:15.643Z,17.60
2018-06-14T07:40:15.661Z,17.70
2018-06-14T07:41:15.578Z,17.68
2018-06-14T07:42:15.658Z,17.70
2018-06-14T07:43:15.531Z,17.71
2018-06-14T07:44:15.563Z,17.70
2018-06-14T07:45:15.476Z,17.83
2018-06-14T07:46:15.465Z,17.81
2018-06-14T07:47:15.415Z,17.87
2018-06-14T07:48:15.409Z,17.86
2018-06-14T07:49:15.397Z,17.83
2018-06-14T07:51:05.990Z,17.99
2018-06-14T07:52:06.022Z,17.95
2018-06-14T07:53:05.891Z,17.96
2018-06-14T07:54:05.948Z,18.01
2018-06-14T07:55:05.841Z,18.07
2018-06-14T07:56:05.826Z,18.16
2018-06-14T07:57:05.789Z,18.11
2018-06-14T07:58:05.765Z,18.14
2018-06-14T07:59:05.731Z,18.25
2018-06-14T08:00:05.741Z,18.34
2018-06-14T08:01:06.765Z,18.32
2018-06-14T08:02:05.676Z,18.35
2018-06-14T08:03:05.622Z,18.36
2018-06-14T08:04:05.666Z,18.36
2018-06-14T08:05:05.578Z,18.36
2018-06-14T08:06:05.562Z,18.46
2018-06-14T08:07:51.364Z,18.53
2018-06-14T08:08:51.311Z,18.62
2018-06-14T08:09:51.279Z,18.56
2018-06-14T08:10:51.281Z,18.54
2018-06-14T08:11:51.213Z,18.57
2018-06-14T08:12:51.973Z,18.62
2018-06-14T08:13:51.182Z,18.60
2018-06-14T08:14:51.131Z,18.60
2018-06-14T08:15:51.117Z,18.57
2018-06-14T08:16:51.100Z,18.69
2018-06-14T08:17:51.064Z,18.72
2018-06-14T08:18:51.038Z,18.69
2018-06-14T08:19:51.024Z,18.78
2018-06-14T08:20:50.979Z,18.89
2018-06-14T08:21:50.957Z,18.93
2018-06-14T08:22:50.923Z,18.97
2018-06-14T08:23:50.906Z,18.96
2018-06-14T08:25:36.439Z,19.01
2018-06-14T08:26:36.365Z,19.20
2018-06-14T08:27:36.338Z,19.12
2018-06-14T08:28:36.318Z,19.16
2018-06-14T08:29:36.287Z,19.20
2018-06-14T08:30:36.364Z,19.23
2018-06-14T08:31:36.228Z,19.34
2018-06-14T08:32:36.203Z,19.46
2018-06-14T08:33:36.268Z,19.49
2018-06-14T08:34:36.186Z,19.53
2018-06-14T08:35:36.166Z,19.61
2018-06-14T08:36:36.106Z,19.47
2018-06-14T08:37:36.070Z,19.65
2018-06-14T08:38:36.076Z,19.60
2018-06-14T08:39:36.082Z,19.68
2018-06-14T08:40:35.995Z,19.70
2018-06-14T08:41:35.958Z,19.70
2018-06-14T08:42:35.950Z,19.85
2018-06-14T08:44:21.428Z,19.86
2018-06-14T08:45:21.303Z,19.90
2018-06-14T08:46:21.285Z,20.05
2018-06-14T08:47:21.299Z,20.04
2018-06-14T08:48:21.250Z,20.12
2018-06-14T08:49:21.313Z,20.25
2018-06-14T08:50:21.181Z,20.30
2018-06-14T08:51:21.155Z,20.38
2018-06-14T08:52:21.120Z,20.33
2018-06-14T08:53:21.103Z,20.48
2018-06-14T08:54:21.076Z,20.40
2018-06-14T08:55:21.143Z,20.40
2018-06-14T08:56:21.057Z,20.50
2018-06-14T08:57:20.994Z,20.56
2018-06-14T08:58:20.974Z,20.58
2018-06-14T08:59:20.944Z,20.64
2018-06-14T09:00:20.927Z,20.53
2018-06-14T09:01:20.897Z,20.41
2018-06-14T09:03:06.250Z,20.60
2018-06-14T09:04:06.198Z,20.50
2018-06-14T09:05:06.274Z,20.44
2018-06-14T09:06:06.151Z,20.31
2018-06-14T09:07:07.233Z,20.25
2018-06-14T09:08:06.138Z,20.34
2018-06-14T09:09:06.121Z,20.34
2018-06-14T09:10:06.051Z,20.35
2018-06-14T09:11:06.028Z,20.56
2018-06-14T09:12:05.983Z,20.58
2018-06-14T09:13:05.963Z,20.66
2018-06-14T09:14:05.925Z,20.76
2018-06-14T09:15:05.948Z,20.87
2018-06-14T09:16:05.878Z,21.06
2018-06-14T09:17:05.861Z,21.03
2018-06-14T09:18:05.831Z,21.09
2018-06-14T09:19:05.795Z,21.21
2018-06-14T09:20:05.866Z,21.27
2018-06-14T09:21:05.752Z,21.31
2018-06-14T09:22:05.721Z,21.26
2018-06-14T09:23:05.692Z,21.13
2018-06-14T09:24:05.688Z,21.12
2018-06-14T09:25:05.645Z,21.05
2018-06-14T09:26:05.620Z,20.98
2018-06-14T09:27:05.693Z,20.93
2018-06-14T09:28:05.560Z,20.85
2018-06-14T09:29:05.604Z,20.82
2018-06-14T09:30:51.429Z,20.97
2018-06-14T09:31:51.322Z,20.97
2018-06-14T09:32:51.306Z,21.12
2018-06-14T09:33:51.404Z,21.03
2018-06-14T09:34:51.315Z,21.12
2018-06-14T09:35:51.325Z,21.33
2018-06-14T09:36:51.207Z,21.61
2018-06-14T09:37:51.273Z,21.74
2018-06-14T09:38:51.148Z,22.05
2018-06-14T09:39:51.200Z,22.11
2018-06-14T09:40:51.171Z,22.14
2018-06-14T09:41:51.120Z,21.98
2018-06-14T09:42:51.181Z,22.06
2018-06-14T09:43:51.162Z,21.83
2018-06-14T09:44:50.991Z,21.79
2018-06-14T09:45:51.109Z,21.56
2018-06-14T09:46:50.948Z,21.64
2018-06-14T09:47:51.034Z,21.51
2018-06-14T09:48:50.897Z,21.42
2018-06-14T09:49:50.938Z,21.37
2018-06-14T09:50:50.843Z,21.31
2018-06-14T09:51:50.850Z,21.27
2018-06-14T09:52:50.786Z,21.45
2018-06-14T09:53:51.870Z,21.67
2018-06-14T09:54:50.741Z,21.75
2018-06-14T09:55:50.792Z,21.70
2018-06-14T09:56:50.690Z,21.79
2018-06-14T09:57:50.720Z,21.82
2018-06-14T09:58:50.639Z,21.75
2018-06-14T09:59:50.726Z,21.68
2018-06-14T10:00:50.585Z,21.56
2018-06-14T10:01:50.651Z,21.52
2018-06-14T10:02:50.529Z,21.56
2018-06-14T10:03:50.546Z,21.48
2018-06-14T10:04:50.485Z,21.55
2018-06-14T10:05:50.562Z,21.63
2018-06-14T10:06:50.437Z,21.55
2018-06-14T10:07:51.502Z,21.59
2018-06-14T10:08:50.388Z,21.74
2018-06-14T10:09:50.381Z,21.73
2018-06-14T10:10:50.350Z,21.83
2018-06-14T10:11:50.411Z,21.74
2018-06-14T10:12:50.309Z,21.79
2018-06-14T10:14:36.382Z,21.66
2018-06-14T10:15:36.389Z,21.63
2018-06-14T10:17:29.688Z,21.91
2018-06-14T10:18:29.602Z,22.11
2018-06-14T10:19:30.579Z,22.27
2018-06-14T10:20:29.530Z,22.36
2018-06-14T10:21:29.571Z,22.31
2018-06-14T10:22:29.492Z,22.11
2018-06-14T10:23:29.500Z,22.35
2018-06-14T10:24:29.476Z,22.45
2018-06-14T10:25:29.526Z,22.46
2018-06-14T10:26:29.381Z,22.63
2018-06-14T10:27:29.408Z,22.74
2018-06-14T10:28:29.329Z,22.82
2018-06-14T10:29:29.335Z,22.79
2018-06-14T10:30:29.276Z,22.78
2018-06-14T10:31:29.334Z,22.69
2018-06-14T10:32:29.252Z,22.81
2018-06-14T10:33:29.213Z,22.63
2018-06-14T10:34:29.189Z,22.54
2018-06-14T10:35:29.263Z,22.46
2018-06-14T10:36:29.124Z,22.41
2018-06-14T10:37:29.201Z,22.46
2018-06-14T10:38:29.101Z,22.41
2018-06-14T10:39:29.099Z,22.42
2018-06-14T10:40:29.040Z,22.39
2018-06-14T10:41:29.106Z,22.29
2018-06-14T10:42:28.975Z,22.15
2018-06-14T10:43:29.014Z,22.05
2018-06-14T10:44:28.950Z,21.94
2018-06-14T10:45:28.929Z,21.98
2018-06-14T10:46:28.884Z,21.93
2018-06-14T10:47:28.982Z,21.94
2018-06-14T10:48:28.884Z,22.05
2018-06-14T10:50:14.432Z,22.27
2018-06-14T10:51:14.352Z,22.41
2018-06-14T10:52:14.325Z,22.42
2018-06-14T10:53:14.323Z,22.64
2018-06-14T10:54:14.288Z,22.74
2018-06-14T10:55:14.260Z,22.85
2018-06-14T10:56:14.221Z,22.88
2018-06-14T10:57:14.201Z,22.96
2018-06-14T10:58:14.174Z,23.06
2018-06-14T10:59:14.154Z,23.22
2018-06-14T11:00:14.118Z,23.11
2018-06-14T11:01:59.562Z,22.86
2018-06-14T11:02:59.514Z,22.75
2018-06-14T11:03:59.503Z,22.66
2018-06-14T11:04:59.476Z,22.63
2018-06-14T11:05:59.476Z,22.59
2018-06-14T11:06:59.531Z,22.66
2018-06-14T11:07:59.722Z,22.63
2018-06-14T11:08:59.434Z,22.54
2018-06-14T11:09:59.337Z,22.66
2018-06-14T11:10:59.342Z,22.88
2018-06-14T11:11:59.293Z,22.94
2018-06-14T11:13:00.381Z,23.15
2018-06-14T11:13:59.242Z,23.34
2018-06-14T11:14:59.212Z,23.44
2018-06-14T11:15:59.213Z,23.32
2018-06-14T11:16:59.170Z,23.35
2018-06-14T11:18:00.214Z,23.26
2018-06-14T11:18:59.145Z,23.19
2018-06-14T11:19:59.093Z,23.22
2018-06-14T11:20:59.095Z,23.35
2018-06-14T11:21:59.126Z,23.50
2018-06-14T11:22:59.153Z,23.60
2018-06-14T11:23:59.069Z,23.75
2018-06-14T11:24:58.970Z,23.79
2018-06-14T11:25:59.054Z,23.72
2018-06-14T11:26:58.922Z,23.62
2018-06-14T11:27:58.945Z,23.64
2018-06-14T11:28:58.859Z,23.60
2018-06-14T11:29:58.890Z,23.29
2018-06-14T11:30:58.869Z,23.38
2018-06-14T11:31:58.785Z,23.34
2018-06-14T11:32:58.887Z,23.29
2018-06-14T11:33:58.735Z,23.32
2018-06-14T11:34:58.785Z,23.25
2018-06-14T11:35:58.696Z,23.37
2018-06-14T11:36:58.696Z,23.25
2018-06-14T11:37:58.648Z,23.26
2018-06-14T11:38:58.611Z,23.26
2018-06-14T11:39:58.623Z,23.29
2018-06-14T11:40:58.579Z,23.44
2018-06-14T11:41:58.528Z,23.42
2018-06-14T11:42:58.542Z,23.45
2018-06-14T11:43:58.487Z,23.53
2018-06-14T11:44:58.609Z,23.37
2018-06-14T11:45:58.439Z,23.50
2018-06-14T11:46:58.417Z,23.50
2018-06-14T11:47:58.394Z,23.42
2018-06-14T11:48:58.362Z,23.44
2018-06-14T11:49:58.330Z,23.52
2018-06-14T11:50:58.333Z,23.59
2018-06-14T11:51:58.295Z,23.63
2018-06-14T11:52:58.417Z,23.54
2018-06-14T11:53:58.234Z,23.56
2018-06-14T11:54:58.304Z,23.38
2018-06-14T11:55:58.181Z,23.45
2018-06-14T11:56:58.222Z,23.44
2018-06-14T11:57:58.160Z,23.47
2018-06-14T11:58:58.124Z,23.50
2018-06-14T11:59:58.084Z,23.47
2018-06-14T12:00:59.177Z,23.54
2018-06-14T12:01:58.032Z,23.54
2018-06-14T12:02:58.065Z,23.47
2018-06-14T12:03:57.979Z,23.47
2018-06-14T12:04:58.068Z,23.57
2018-06-14T12:05:57.927Z,23.67
2018-06-14T12:06:57.980Z,23.74
2018-06-14T12:07:57.879Z,23.71
2018-06-14T12:08:57.928Z,23.82
2018-06-14T12:09:57.840Z,23.96
2018-06-14T12:10:57.929Z,23.97
2018-06-14T12:11:57.810Z,23.92
2018-06-14T12:12:57.816Z,23.84
2018-06-14T12:13:57.727Z,23.64
2018-06-14T12:14:57.728Z,23.71
2018-06-14T12:15:57.730Z,23.75
2018-06-14T12:16:57.679Z,23.60
2018-06-14T12:17:57.682Z,23.44
2018-06-14T12:18:57.629Z,23.42
2018-06-14T12:19:57.654Z,23.50
2018-06-14T12:20:57.561Z,23.59
2018-06-14T12:21:57.569Z,23.62
2018-06-14T12:22:57.512Z,23.62
2018-06-14T12:23:57.579Z,23.68
2018-06-14T12:24:57.454Z,23.87
2018-06-14T12:25:57.511Z,23.90
2018-06-14T12:26:57.405Z,24.05
2018-06-14T12:27:57.506Z,24.23
2018-06-14T12:28:57.357Z,24.23
2018-06-14T12:29:57.428Z,24.39
2018-06-14T12:30:57.320Z,24.49
2018-06-14T12:31:57.330Z,24.37
2018-06-14T12:32:57.275Z,24.26
2018-06-14T12:33:57.550Z,24.11
2018-06-14T12:34:57.209Z,24.06
2018-06-14T12:36:42.739Z,23.79
2018-06-14T12:37:42.695Z,23.77
2018-06-14T12:38:42.648Z,23.72
2018-06-14T12:39:42.607Z,23.75
2018-06-14T12:40:42.595Z,23.92
2018-06-14T12:41:42.563Z,23.94
2018-06-14T12:42:42.548Z,24.08
2018-06-14T12:43:42.527Z,24.26
2018-06-14T12:44:42.518Z,24.30
2018-06-14T12:45:42.496Z,24.30
2018-06-14T12:46:42.470Z,24.42
2018-06-14T12:47:42.411Z,24.48
2018-06-14T12:48:42.502Z,24.49
2018-06-14T12:49:42.379Z,24.60
2018-06-14T12:51:27.930Z,24.44
2018-06-14T12:52:27.819Z,24.37
2018-06-14T12:53:27.787Z,24.39
2018-06-14T12:54:27.769Z,24.18
2018-06-14T12:55:27.769Z,24.12
2018-06-14T12:56:27.747Z,24.00
2018-06-14T12:57:27.679Z,24.04
2018-06-14T12:58:27.734Z,23.87
2018-06-14T12:59:27.656Z,23.81
2018-06-14T13:00:27.617Z,23.77
2018-06-14T13:02:13.110Z,23.72
2018-06-14T13:03:13.095Z,23.69
2018-06-14T13:04:13.055Z,23.77
2018-06-14T13:05:13.107Z,23.77
2018-06-14T13:06:12.967Z,23.78
2018-06-14T13:07:13.010Z,23.94
2018-06-14T13:08:12.968Z,23.84
2018-06-14T13:09:12.886Z,23.87
2018-06-14T13:10:13.940Z,23.74
2018-06-14T13:11:12.894Z,23.60
2018-06-14T13:12:12.898Z,23.68